Time;durP1;ratioP1;P1;durP2;ratioP2;P2;SDS_P1;SDS_P2;PMS_P1;PMS_P2;Temp;Humidity;BMP_temperature;BMP_pressure;BME280_temperature;BME280_humidity;BME280_pressure;Samples;Min_cycle;Max_cycle;Signal;HPM_P1;HPM_P2
2022/05/17 00:00:24;;;;;;;18.25;5.68;;;19.80;99.90;;;;;;5095580;28;20017;-80
2022/05/17 00:02:50;;;;;;;16.73;5.68;;;19.60;99.90;;;;;;5095171;28;20023;-80
2022/05/17 00:05:15;;;;;;;19.15;5.35;;;19.60;99.90;;;;;;5094974;28;20012;-80
2022/05/17 00:07:41;;;;;;;17.40;5.18;;;19.60;99.90;;;;;;5094831;28;20027;-80
2022/05/17 00:10:07;;;;;;;17.50;5.55;;;19.60;99.90;;;;;;5094908;28;20031;-80
2022/05/17 00:12:33;;;;;;;17.92;4.72;;;19.70;99.90;;;;;;5094223;28;20103;-80
2022/05/17 00:14:59;;;;;;;14.40;5.07;;;19.50;99.90;;;;;;5094609;28;20099;-80
2022/05/17 00:17:25;;;;;;;14.00;5.18;;;19.50;99.90;;;;;;5094811;28;20103;-81
2022/05/17 00:19:51;;;;;;;13.13;4.90;;;19.50;99.90;;;;;;5092843;28;20024;-80
2022/05/17 00:22:17;;;;;;;12.35;4.60;;;19.50;99.90;;;;;;5095078;28;20020;-80
2022/05/17 00:24:43;;;;;;;15.52;4.82;;;19.40;99.90;;;;;;5093398;28;20013;-80
2022/05/17 00:27:08;;;;;;;19.42;5.40;;;19.30;99.90;;;;;;5094974;28;20099;-80
2022/05/17 00:29:34;;;;;;;12.07;5.13;;;19.30;99.90;;;;;;5094928;28;20515;-80
2022/05/17 00:32:00;;;;;;;14.13;5.70;;;19.30;99.90;;;;;;5094299;28;20036;-80
2022/05/17 00:34:27;;;;;;;17.90;5.63;;;19.20;99.90;;;;;;5094419;28;20434;-80
2022/05/17 00:36:53;;;;;;;14.68;4.85;;;19.20;99.90;;;;;;5093448;28;20020;-80
2022/05/17 00:39:19;;;;;;;19.00;5.40;;;19.20;99.90;;;;;;5093947;28;20046;-80
2022/05/17 00:41:45;;;;;;;23.73;5.05;;;19.20;99.90;;;;;;5093158;28;20075;-80
2022/05/17 00:47:04;;;;;;;14.38;5.18;;;19.10;99.90;;;;;;5094236;28;20069;-80
2022/05/17 00:49:45;;;;;;;13.43;5.10;;;19.10;99.90;;;;;;5085975;28;20048;-79
2022/05/17 00:52:19;;;;;;;19.88;4.60;;;19.10;99.90;;;;;;5093926;28;20031;-80
2022/05/17 00:54:46;;;;;;;12.07;4.22;;;19.00;99.90;;;;;;5092020;28;20081;-79
2022/05/17 00:57:41;;;;;;;15.07;4.38;;;19.10;99.90;;;;;;5094051;28;20086;-79
2022/05/17 01:00:12;;;;;;;17.75;4.45;;;19.10;99.90;;;;;;5093917;28;20073;-80
2022/05/17 01:02:47;;;;;;;17.93;5.20;;;19.00;99.90;;;;;;5094307;28;20027;-80
2022/05/17 01:05:14;;;;;;;18.38;5.03;;;19.00;99.90;;;;;;5093480;28;20266;-80
2022/05/17 01:07:43;;;;;;;14.07;4.30;;;18.90;99.90;;;;;;5093799;28;20078;-80
2022/05/17 01:10:10;;;;;;;15.50;4.28;;;18.90;99.90;;;;;;5091276;28;20043;-81
2022/05/17 01:12:38;;;;;;;19.00;4.55;;;18.90;99.90;;;;;;5093741;28;20020;-80
2022/05/17 01:15:06;;;;;;;16.67;4.85;;;18.90;99.90;;;;;;5092860;28;20022;-79
2022/05/17 01:17:34;;;;;;;19.38;4.30;;;18.80;99.90;;;;;;5092499;28;20090;-80
2022/05/17 01:20:07;;;;;;;18.38;4.85;;;18.80;99.90;;;;;;5092999;28;20024;-79
2022/05/17 01:22:33;;;;;;;14.02;4.97;;;18.70;99.90;;;;;;5093660;28;20388;-80
2022/05/17 01:24:58;;;;;;;18.98;4.88;;;18.70;99.90;;;;;;5092708;28;20073;-80
2022/05/17 01:27:38;;;;;;;13.68;4.00;;;18.80;99.90;;;;;;5094085;28;20020;-80
2022/05/17 01:30:05;;;;;;;13.18;4.28;;;18.70;99.90;;;;;;5093571;28;20087;-80
2022/05/17 01:32:32;;;;;;;16.17;4.55;;;18.70;99.90;;;;;;5093903;28;20027;-80
2022/05/17 01:34:59;;;;;;;19.02;4.45;;;18.60;99.90;;;;;;5093847;28;20016;-80
2022/05/17 01:37:25;;;;;;;13.60;4.70;;;18.60;99.90;;;;;;5092982;28;20475;-80
2022/05/17 01:39:51;;;;;;;12.30;4.40;;;18.60;99.90;;;;;;5092720;28;20058;-80
2022/05/17 01:42:16;;;;;;;17.25;4.93;;;18.60;99.90;;;;;;5093061;28;20020;-79
2022/05/17 01:44:44;;;;;;;19.52;4.90;;;18.50;99.90;;;;;;5092557;28;20475;-80
2022/05/17 01:47:11;;;;;;;23.42;5.32;;;18.60;99.90;;;;;;5092804;28;20099;-79
2022/05/17 01:49:37;;;;;;;15.20;4.70;;;18.50;99.90;;;;;;5093089;28;20027;-80
2022/05/17 01:52:03;;;;;;;16.40;5.75;;;18.50;99.90;;;;;;5091249;28;20730;-80
2022/05/17 01:54:29;;;;;;;13.13;4.78;;;18.50;99.90;;;;;;5092318;28;20039;-81
2022/05/17 01:56:54;;;;;;;18.48;6.68;;;18.40;99.90;;;;;;5092821;28;20105;-80
2022/05/17 01:59:20;;;;;;;12.75;4.70;;;18.50;99.90;;;;;;5092744;28;20053;-80
2022/05/17 02:01:46;;;;;;;17.05;5.47;;;18.40;99.90;;;;;;5093329;28;20436;-80
2022/05/17 02:04:12;;;;;;;14.25;4.65;;;18.30;99.90;;;;;;5093104;28;20086;-80
2022/05/17 02:06:38;;;;;;;13.95;4.95;;;18.30;99.90;;;;;;5093524;28;20059;-79
2022/05/17 02:09:04;;;;;;;11.13;5.50;;;18.30;99.90;;;;;;5092606;28;20056;-80
2022/05/17 02:11:30;;;;;;;16.20;5.85;;;18.30;99.90;;;;;;5093166;28;20487;-80
2022/05/17 02:13:55;;;;;;;13.55;4.88;;;18.30;99.90;;;;;;5092997;28;20031;-80
2022/05/17 02:16:21;;;;;;;18.10;5.32;;;18.20;99.90;;;;;;5092919;28;20028;-80
2022/05/17 02:18:47;;;;;;;25.15;5.45;;;18.20;99.90;;;;;;5093081;28;20020;-80
2022/05/17 02:21:13;;;;;;;18.67;5.93;;;18.20;99.90;;;;;;5092757;28;20453;-80
2022/05/17 02:23:39;;;;;;;15.85;5.40;;;18.20;99.90;;;;;;5092644;28;20016;-80
2022/05/17 02:26:04;;;;;;;21.80;5.45;;;18.10;99.90;;;;;;5092729;28;20395;-79
2022/05/17 02:28:30;;;;;;;15.27;4.63;;;18.20;99.90;;;;;;5092854;28;20457;-79
2022/05/17 02:30:56;;;;;;;15.65;4.75;;;18.10;99.90;;;;;;5092686;28;20430;-79
2022/05/17 02:33:22;;;;;;;14.50;4.75;;;18.10;99.90;;;;;;5092317;28;20545;-79
2022/05/17 02:35:47;;;;;;;14.07;5.43;;;18.10;99.90;;;;;;5092582;28;20403;-79
2022/05/17 02:38:13;;;;;;;16.13;5.50;;;18.10;99.90;;;;;;5091510;28;20036;-79
2022/05/17 02:40:39;;;;;;;15.23;4.90;;;18.10;99.90;;;;;;5092902;28;20020;-80
2022/05/17 02:43:04;;;;;;;17.30;5.72;;;18.10;99.90;;;;;;5092891;28;20535;-80
2022/05/17 02:45:31;;;;;;;19.50;6.72;;;18.10;99.90;;;;;;5092864;28;20035;-80
2022/05/17 02:47:57;;;;;;;21.98;5.82;;;18.10;99.90;;;;;;5092614;28;20017;-80
2022/05/17 02:50:23;;;;;;;17.00;4.97;;;18.10;99.90;;;;;;5092562;28;20042;-80
2022/05/17 02:52:49;;;;;;;19.08;6.03;;;18.10;99.90;;;;;;5092408;28;20020;-79
2022/05/17 02:55:15;;;;;;;16.40;5.28;;;18.00;99.90;;;;;;5092410;28;20054;-79
2022/05/17 02:57:41;;;;;;;23.25;5.80;;;18.00;99.90;;;;;;5091501;28;20149;-80
2022/05/17 03:00:11;;;;;;;16.33;5.43;;;18.10;99.90;;;;;;5094337;28;20012;-80
2022/05/17 03:02:37;;;;;;;12.88;4.28;;;18.10;99.90;;;;;;5096712;28;20048;-79
2022/05/17 03:05:03;;;;;;;14.32;4.82;;;18.10;99.90;;;;;;5096872;28;20031;-80
2022/05/17 03:07:29;;;;;;;20.92;5.45;;;18.10;99.90;;;;;;5096134;28;20024;-80
2022/05/17 03:09:54;;;;;;;19.02;5.45;;;18.10;99.90;;;;;;5096129;28;20012;-80
2022/05/17 03:12:20;;;;;;;15.98;5.50;;;18.00;99.90;;;;;;5096528;28;20031;-80
2022/05/17 03:14:45;;;;;;;14.13;5.10;;;18.10;99.90;;;;;;5096481;28;20504;-80
2022/05/17 03:17:13;;;;;;;21.23;5.15;;;18.00;99.90;;;;;;5096430;28;20468;-80
2022/05/17 03:19:40;;;;;;;15.35;5.15;;;18.00;99.90;;;;;;5096081;28;20483;-80
2022/05/17 03:22:06;;;;;;;21.63;6.30;;;17.90;99.90;;;;;;5096315;28;20051;-80
2022/05/17 03:24:32;;;;;;;12.80;5.07;;;17.90;99.90;;;;;;5096404;28;20149;-79
2022/05/17 03:26:58;;;;;;;21.92;5.95;;;17.80;99.90;;;;;;5096194;28;20054;-79
2022/05/17 03:29:24;;;;;;;17.45;4.57;;;17.90;99.90;;;;;;5095886;28;20020;-80
2022/05/17 03:31:51;;;;;;;13.32;5.15;;;17.80;99.90;;;;;;5096467;28;20585;-80
2022/05/17 03:34:17;;;;;;;15.60;5.28;;;17.80;99.90;;;;;;5095441;28;20361;-80
2022/05/17 03:36:43;;;;;;;16.83;4.82;;;17.80;99.90;;;;;;5096089;28;20107;-79
2022/05/17 03:39:09;;;;;;;14.00;4.88;;;17.80;99.90;;;;;;5095782;28;20249;-80
2022/05/17 03:41:35;;;;;;;21.35;5.20;;;17.80;99.90;;;;;;5094630;28;20031;-80
2022/05/17 03:44:00;;;;;;;17.02;4.85;;;17.70;99.90;;;;;;5095944;28;20383;-80
2022/05/17 03:46:26;;;;;;;20.63;5.57;;;17.70;99.90;;;;;;5095845;28;20036;-79
2022/05/17 03:48:52;;;;;;;14.55;5.80;;;17.60;99.90;;;;;;5095365;28;20028;-79
2022/05/17 03:51:19;;;;;;;13.27;4.70;;;17.70;99.90;;;;;;5095764;28;20601;-80
2022/05/17 03:53:46;;;;;;;14.23;6.20;;;17.70;99.90;;;;;;5096052;28;20097;-79
2022/05/17 03:56:12;;;;;;;21.08;5.32;;;17.70;99.90;;;;;;5095626;28;20081;-80
2022/05/17 03:58:38;;;;;;;21.95;5.65;;;17.60;99.90;;;;;;5095739;28;20422;-80
2022/05/17 04:01:04;;;;;;;22.40;6.03;;;17.60;99.90;;;;;;5095366;28;20030;-79
2022/05/17 04:03:31;;;;;;;21.20;5.20;;;17.60;99.90;;;;;;5094684;28;20077;-80
2022/05/17 04:05:57;;;;;;;20.33;5.97;;;17.60;99.90;;;;;;5095827;28;20103;-80
2022/05/17 04:08:23;;;;;;;13.77;4.82;;;17.60;99.90;;;;;;5093915;28;20048;-79
2022/05/17 04:10:48;;;;;;;17.00;5.18;;;17.60;99.90;;;;;;5093773;28;20052;-80
2022/05/17 04:13:14;;;;;;;17.17;5.68;;;17.50;99.90;;;;;;5094662;28;20471;-81
2022/05/17 04:15:41;;;;;;;18.88;5.32;;;17.50;99.90;;;;;;5095023;28;20034;-78
2022/05/17 04:18:07;;;;;;;19.33;5.45;;;17.60;99.90;;;;;;5095040;28;20376;-80
2022/05/17 04:20:33;;;;;;;19.92;5.43;;;17.40;99.90;;;;;;5095066;28;20027;-80
2022/05/17 04:22:59;;;;;;;12.55;5.38;;;17.30;99.90;;;;;;5095044;28;20096;-79
2022/05/17 04:25:26;;;;;;;22.27;6.20;;;17.30;99.90;;;;;;5095409;28;20427;-80
2022/05/17 04:27:52;;;;;;;16.77;6.28;;;17.30;99.90;;;;;;5095270;28;20024;-79
2022/05/17 04:30:18;;;;;;;16.33;6.03;;;17.20;99.90;;;;;;5094962;28;20032;-82
2022/05/17 04:32:44;;;;;;;19.70;5.80;;;17.30;99.90;;;;;;5094836;28;20024;-79
2022/05/17 04:35:11;;;;;;;16.55;5.63;;;17.20;99.90;;;;;;5094592;28;20035;-83
2022/05/17 04:37:37;;;;;;;24.45;5.68;;;17.20;99.90;;;;;;5093869;28;20055;-81
2022/05/17 04:40:10;;;;;;;14.52;5.75;;;17.30;99.90;;;;;;5093760;28;20020;-80
2022/05/17 04:42:37;;;;;;;19.75;5.38;;;17.20;99.90;;;;;;5092084;28;20483;-80
2022/05/17 04:45:05;;;;;;;18.77;5.70;;;17.20;99.90;;;;;;5093853;28;20414;-80
2022/05/17 04:47:31;;;;;;;15.38;5.32;;;17.20;99.90;;;;;;5092837;28;20024;-78
2022/05/17 04:49:57;;;;;;;17.15;5.75;;;17.10;99.90;;;;;;5092764;28;20028;-79
2022/05/17 04:52:26;;;;;;;21.08;5.55;;;17.10;99.90;;;;;;5093565;28;20058;-76
2022/05/17 04:54:52;;;;;;;19.23;6.57;;;17.10;99.90;;;;;;5094011;28;20391;-78
2022/05/17 04:57:18;;;;;;;11.27;5.57;;;17.00;99.90;;;;;;5092815;28;20061;-77
2022/05/17 04:59:44;;;;;;;19.83;5.82;;;17.10;99.90;;;;;;5093364;28;20029;-78
2022/05/17 05:02:10;;;;;;;20.33;5.47;;;17.10;99.90;;;;;;5093133;28;20020;-79
2022/05/17 05:04:38;;;;;;;15.00;6.25;;;17.10;99.90;;;;;;5092984;28;20378;-79
2022/05/17 05:07:04;;;;;;;20.73;5.63;;;17.00;99.90;;;;;;5093519;28;20020;-81
2022/05/17 05:09:30;;;;;;;17.65;6.10;;;17.10;99.90;;;;;;5092630;28;20028;-78
2022/05/17 05:11:56;;;;;;;14.52;5.28;;;17.10;99.90;;;;;;5092188;28;20039;-80
2022/05/17 10:27:26;;;;;;;11.95;3.28;;;29.20;68.20;;;;;;6087652;23;20040;31
2022/05/17 10:30:07;;;;;;;15.80;3.20;;;29.70;67.10;;;;;;4927683;29;20055;-78
2022/05/17 10:32:38;;;;;;;11.65;2.88;;;28.70;66.10;;;;;;4935508;29;20036;-78
2022/05/17 10:35:04;;;;;;;19.52;3.55;;;28.90;65.20;;;;;;4918507;29;20051;-78
2022/05/17 10:37:45;;;;;;;10.65;2.72;;;28.30;68.10;;;;;;4916935;29;20036;-77
2022/05/17 10:40:16;;;;;;;;;;;28.50;64.90;;;;;;4928013;29;20122;-77
2022/05/17 10:42:43;;;;;;;8.85;3.10;;;28.90;65.20;;;;;;4935672;29;19918;-78
2022/05/17 10:45:17;;;;;;;8.95;3.08;;;28.30;63.60;;;;;;4934047;29;20032;-77
2022/05/17 10:47:59;;;;;;;12.02;3.05;;;28.00;64.60;;;;;;4933096;29;20042;-78
2022/05/17 10:50:36;;;;;;;17.77;3.97;;;28.30;64.20;;;;;;4923872;29;20052;-78
2022/05/17 10:53:17;;;;;;;14.70;2.83;;;28.80;64.10;;;;;;4933750;29;20038;-78
2022/05/17 10:56:10;;;;;;;11.30;3.20;;;28.40;64.20;;;;;;4916315;29;20029;-78
2022/05/17 10:58:49;;;;;;;13.85;3.15;;;28.30;65.30;;;;;;4915733;29;20119;-78
2022/05/17 11:01:24;;;;;;;15.40;3.40;;;28.10;65.30;;;;;;4930481;29;20051;-78
2022/05/17 11:04:25;;;;;;;12.82;3.25;;;28.90;65.30;;;;;;4915837;29;20051;-78
2022/05/17 11:07:21;;;;;;;16.23;3.03;;;29.40;63.50;;;;;;4895300;29;20032;-78
2022/05/17 11:10:02;;;;;;;15.00;3.42;;;29.70;64.80;;;;;;4894987;29;20144;-78
2022/05/17 11:12:33;;;;;;;12.38;3.85;;;28.90;64.30;;;;;;4902659;29;20032;-78
2022/05/17 11:15:02;;;;;;;;;;;28.50;62.90;;;;;;4914417;29;20087;-78
2022/05/17 14:52:56;;;;;;;8.68;3.20;;;30.70;56.00;;;;;;5264210;23;20243;-77
2022/05/17 14:55:25;;;;;;;11.00;2.97;;;30.80;53.80;;;;;;5019302;28;20423;-81
2022/05/17 14:57:51;;;;;;;8.52;2.72;;;30.70;53.90;;;;;;5019644;28;20030;-79
2022/05/17 15:00:20;;;;;;;7.93;3.30;;;30.40;54.00;;;;;;5016176;28;20044;-77
2022/05/17 15:03:01;;;;;;;11.05;3.53;;;30.50;54.10;;;;;;5017074;28;20030;-76
2022/05/17 15:05:28;;;;;;;11.85;3.05;;;30.70;53.80;;;;;;5016275;28;20010;-76
2022/05/17 15:07:55;;;;;;;12.13;3.58;;;30.70;54.20;;;;;;5017079;28;20025;-76
2022/05/17 15:10:25;;;;;;;9.98;3.42;;;30.50;53.90;;;;;;5020273;28;20026;-77
2022/05/17 15:12:51;;;;;;;11.60;3.20;;;30.50;54.10;;;;;;5015108;28;20045;-76
2022/05/17 15:15:17;;;;;;;11.77;3.33;;;30.80;54.00;;;;;;5014013;28;20017;-81
2022/05/17 15:17:52;;;;;;;12.35;3.15;;;30.60;54.50;;;;;;5016165;28;20033;-75
2022/05/17 15:20:19;;;;;;;15.27;3.33;;;30.80;54.50;;;;;;5019076;28;20023;-74
2022/05/17 15:22:46;;;;;;;11.27;2.85;;;30.60;53.80;;;;;;4999684;28;20018;-75
2022/05/17 15:25:14;;;;;;;13.23;3.42;;;30.50;53.60;;;;;;5014820;28;20022;-75
2022/05/17 15:27:40;;;;;;;14.98;3.13;;;30.30;52.80;;;;;;5023961;28;20022;-75
2022/05/17 15:30:07;;;;;;;16.35;3.38;;;30.40;53.60;;;;;;5015123;28;20034;-75
2022/05/17 15:32:33;;;;;;;16.10;3.75;;;30.60;54.70;;;;;;5014324;28;20045;-76
2022/05/17 15:34:59;;;;;;;6.68;2.63;;;30.50;53.40;;;;;;5015957;28;20021;-75
2022/05/17 15:37:25;;;;;;;14.57;3.70;;;30.90;53.80;;;;;;5015733;28;20029;-74
2022/05/17 15:39:51;;;;;;;8.88;3.17;;;30.70;52.90;;;;;;5014354;28;20037;-73
2022/05/17 15:42:18;;;;;;;17.98;3.30;;;30.70;53.10;;;;;;5013993;28;20045;-73
2022/05/17 15:44:44;;;;;;;15.90;3.80;;;30.80;54.50;;;;;;5014295;28;20026;-72
2022/05/17 15:55:33;;;;;;;9.00;2.63;;;30.90;53.50;;;;;;5006430;28;20101;-72
2022/05/17 15:57:58;;;;;;;11.45;3.08;;;30.40;52.00;;;;;;5003124;28;20054;-72
2022/05/17 16:00:24;;;;;;;7.95;3.20;;;30.20;53.20;;;;;;5009439;28;20064;-72
2022/05/17 16:02:51;;;;;;;12.07;3.45;;;30.20;53.50;;;;;;5007187;28;20062;-72
2022/05/17 16:05:17;;;;;;;9.85;2.90;;;30.20;53.20;;;;;;4998583;28;20026;-72
2022/05/17 16:08:01;;;;;;;12.15;3.55;;;30.10;53.60;;;;;;5004278;28;20030;-72
2022/05/17 16:10:33;;;;;;;12.45;2.65;;;30.10;52.60;;;;;;4999442;28;20022;-72
2022/05/17 16:12:59;;;;;;;15.30;3.35;;;30.20;51.90;;;;;;5010817;28;20473;-72
2022/05/17 16:15:25;;;;;;;9.80;3.03;;;30.10;53.90;;;;;;5002272;28;20389;-72
2022/05/17 16:18:05;;;;;;;12.77;3.08;;;30.30;52.20;;;;;;5012281;28;20018;-72
2022/05/17 16:20:31;;;;;;;12.70;3.15;;;30.30;52.10;;;;;;5013425;28;20033;-72
2022/05/17 16:22:57;;;;;;;58.50;5.57;;;30.10;51.80;;;;;;5000858;28;20018;-72
2022/05/17 16:25:23;;;;;;;12.32;3.10;;;30.20;53.50;;;;;;5001321;28;20072;-72
2022/05/17 16:27:53;;;;;;;12.73;3.28;;;30.10;53.00;;;;;;4998226;28;20022;-72
2022/05/17 16:30:25;;;;;;;11.32;3.17;;;30.00;52.00;;;;;;5004558;28;20124;-72
2022/05/17 16:32:53;;;;;;;10.73;2.97;;;30.00;53.60;;;;;;5012138;28;20030;-74
2022/05/17 16:35:23;;;;;;;9.82;3.22;;;30.00;55.10;;;;;;5009366;28;20022;-72
2022/05/17 16:37:49;;;;;;;8.75;2.60;;;30.00;53.50;;;;;;5001205;28;20030;-74
2022/05/17 16:40:16;;;;;;;12.55;3.00;;;29.80;53.90;;;;;;4995324;28;20026;-74
2022/05/17 16:42:42;;;;;;;11.98;2.75;;;29.80;54.20;;;;;;5008348;28;20026;-74
2022/05/17 16:45:08;;;;;;;11.10;3.28;;;29.60;53.60;;;;;;5009717;28;20022;-74
2022/05/17 16:47:35;;;;;;;11.60;3.08;;;29.80;53.50;;;;;;5002740;28;20049;-76
2022/05/17 16:50:23;;;;;;;14.93;3.72;;;29.70;53.70;;;;;;5005622;28;20137;-74
2022/05/17 16:52:50;;;;;;;8.20;2.70;;;29.60;52.90;;;;;;5004063;28;20041;-74
2022/05/17 16:55:17;;;;;;;14.63;2.85;;;29.60;55.10;;;;;;5013794;28;20030;-73
2022/05/17 16:57:43;;;;;;;14.82;3.72;;;29.70;54.40;;;;;;5011018;28;20018;-74
2022/05/17 17:00:09;;;;;;;14.02;3.45;;;29.70;54.00;;;;;;5014347;28;20373;-74
2022/05/17 17:02:38;;;;;;;13.07;3.55;;;29.80;55.00;;;;;;5011864;28;20436;-72
2022/05/17 17:05:17;;;;;;;8.93;3.00;;;29.60;55.40;;;;;;5002502;28;20030;-72
2022/05/17 17:07:43;;;;;;;13.48;2.97;;;29.50;54.80;;;;;;5001723;28;20026;-72
2022/05/17 17:10:09;;;;;;;9.20;3.00;;;29.50;56.50;;;;;;5002051;28;20113;-73
2022/05/17 17:12:35;;;;;;;10.70;3.05;;;29.50;55.20;;;;;;5001568;28;20165;-72
2022/05/17 17:15:01;;;;;;;11.68;3.38;;;29.40;55.90;;;;;;5012061;28;20030;-72
2022/05/17 17:17:27;;;;;;;10.75;3.08;;;29.40;55.90;;;;;;5013596;28;20033;-72
2022/05/17 17:19:52;;;;;;;19.30;4.05;;;29.30;55.40;;;;;;5011699;28;20034;-73
2022/05/17 17:22:19;;;;;;;11.50;3.22;;;29.30;56.00;;;;;;5013107;28;20037;-73
2022/05/17 17:24:44;;;;;;;14.45;3.20;;;29.30;56.90;;;;;;5013777;28;20030;-73
2022/05/17 17:27:12;;;;;;;21.17;3.58;;;29.20;56.50;;;;;;4997957;28;20096;-74
2022/05/17 17:29:38;;;;;;;9.65;3.35;;;29.10;56.00;;;;;;5007935;28;20112;-73
2022/05/17 17:37:34;;;;;;;13.75;3.72;;;28.90;57.40;;;;;;5011754;28;20036;-72
2022/05/17 17:39:59;;;;;;;18.75;3.83;;;28.80;58.90;;;;;;5009742;28;20401;-73
2022/05/17 17:42:26;;;;;;;11.93;3.70;;;28.70;60.10;;;;;;5011131;28;20026;-73
2022/05/17 17:44:52;;;;;;;10.98;3.55;;;28.60;58.80;;;;;;5009850;28;20029;-74
2022/05/17 17:47:18;;;;;;;13.82;3.33;;;28.50;60.90;;;;;;5013270;28;20055;-73
2022/05/17 17:49:45;;;;;;;13.63;3.20;;;28.40;60.90;;;;;;5010904;28;20030;-74
2022/05/17 17:52:11;;;;;;;14.23;3.50;;;28.30;61.10;;;;;;5007701;28;20050;-74
2022/05/17 17:54:37;;;;;;;14.10;3.28;;;28.20;62.30;;;;;;5022353;28;20024;-74
2022/05/17 17:57:06;;;;;;;9.98;2.90;;;28.20;62.50;;;;;;5010684;28;20029;-74
2022/05/17 17:59:32;;;;;;;13.57;3.85;;;28.10;62.00;;;;;;5010722;28;20032;-74
2022/05/17 18:01:58;;;;;;;14.68;3.55;;;28.10;63.40;;;;;;5009925;28;20014;-74
2022/05/17 18:04:23;;;;;;;16.10;4.10;;;28.10;63.50;;;;;;5018786;28;20084;-74
2022/05/17 18:06:49;;;;;;;12.35;3.95;;;28.20;62.90;;;;;;5011787;28;20018;-73
2022/05/17 18:09:15;;;;;;;14.73;3.90;;;28.00;63.60;;;;;;5010511;28;20105;-74
2022/05/17 18:11:41;;;;;;;16.45;3.47;;;28.10;63.70;;;;;;5010836;28;20053;-74
2022/05/17 18:14:08;;;;;;;15.45;3.70;;;28.00;64.70;;;;;;5019467;28;20026;-77
2022/05/17 18:16:39;;;;;;;12.88;3.50;;;27.90;63.30;;;;;;5006543;28;20023;-74
2022/05/17 18:19:06;;;;;;;12.15;3.35;;;27.80;67.30;;;;;;5007940;28;20109;-73
2022/05/17 18:21:32;;;;;;;15.50;3.58;;;27.60;66.60;;;;;;5027543;28;20013;-73
2022/05/17 18:23:59;;;;;;;17.90;3.42;;;27.50;68.00;;;;;;5015027;28;20474;-74
2022/05/17 18:26:31;;;;;;;12.75;3.83;;;27.40;70.60;;;;;;5015773;28;20017;-73
2022/05/17 18:29:03;;;;;;;16.38;3.65;;;27.20;70.70;;;;;;5011199;28;20049;-72
2022/05/17 18:31:30;;;;;;;14.05;3.67;;;27.20;70.60;;;;;;5010069;28;20033;-72
2022/05/17 18:33:55;;;;;;;6.50;2.67;;;27.10;74.40;;;;;;5014903;28;20048;-73
2022/05/17 18:36:27;;;;;;;9.07;3.55;;;27.00;72.60;;;;;;5018593;28;20021;-72
2022/05/17 18:38:54;;;;;;;14.95;3.72;;;27.00;75.30;;;;;;5017337;28;20030;-72
2022/05/17 18:41:22;;;;;;;15.98;3.20;;;26.90;76.70;;;;;;5021656;28;20048;-74
2022/05/17 18:43:48;;;;;;;11.27;3.47;;;26.80;76.00;;;;;;5019665;28;20511;-74
2022/05/17 18:46:15;;;;;;;15.63;3.80;;;26.70;77.50;;;;;;5031790;28;20034;-72
2022/05/17 18:48:46;;;;;;;9.85;4.00;;;26.60;76.60;;;;;;5002103;28;20030;-72
2022/05/17 18:51:13;;;;;;;16.10;4.15;;;26.40;78.50;;;;;;5002220;28;20034;-72
2022/05/17 18:53:39;;;;;;;12.00;3.75;;;26.40;79.50;;;;;;4999752;28;20030;-72
2022/05/17 18:56:05;;;;;;;8.75;3.63;;;26.30;79.90;;;;;;4993108;28;20026;-72
2022/05/17 18:58:31;;;;;;;13.70;4.15;;;26.20;80.30;;;;;;5008882;28;20014;-72
2022/05/17 19:00:57;;;;;;;14.18;3.53;;;26.10;80.30;;;;;;5011027;28;20473;-72
2022/05/17 19:03:29;;;;;;;12.32;3.75;;;26.00;81.60;;;;;;5008915;28;20040;-72
2022/05/17 19:05:59;;;;;;;;;;;25.90;82.10;;;;;;5012071;28;20088;-72
2022/05/17 19:13:56;;;;;;;13.18;3.78;;;25.60;83.70;;;;;;4996296;28;20404;-73
2022/05/17 19:16:24;;;;;;;10.82;3.67;;;25.50;83.10;;;;;;5007273;28;20501;-73
2022/05/17 19:18:59;;;;;;;16.85;4.03;;;25.40;83.80;;;;;;4991907;28;20065;-72
2022/05/17 19:21:34;;;;;;;13.55;3.97;;;25.30;84.60;;;;;;5010882;28;20049;-72
2022/05/17 19:24:01;;;;;;;15.70;3.97;;;25.20;84.50;;;;;;5011367;28;20022;-72
2022/05/17 19:26:29;;;;;;;11.73;3.40;;;25.10;84.90;;;;;;5011474;28;20054;-72
2022/05/17 19:28:54;;;;;;;11.65;3.88;;;25.10;85.30;;;;;;5011471;28;20022;-73
2022/05/17 19:31:29;;;;;;;8.45;3.55;;;24.90;86.20;;;;;;5009731;28;20548;-72
2022/05/17 19:33:58;;;;;;;11.32;3.72;;;24.90;85.70;;;;;;4991249;28;20038;-72
2022/05/17 19:36:23;;;;;;;11.15;3.35;;;24.80;86.70;;;;;;4992385;28;20394;-73
2022/05/17 19:41:35;;;;;;;11.93;4.45;;;24.70;87.50;;;;;;5012483;28;20044;-72
2022/05/17 19:44:00;;;;;;;12.95;3.40;;;24.60;87.40;;;;;;5014170;28;20034;-72
2022/05/17 19:46:27;;;;;;;11.63;3.97;;;24.40;88.00;;;;;;5014802;28;20029;-72
2022/05/17 19:48:53;;;;;;;10.98;3.63;;;24.40;88.20;;;;;;5015192;28;20033;-72
2022/05/17 19:51:19;;;;;;;12.98;3.08;;;24.30;88.00;;;;;;5014933;28;20026;-73
2022/05/17 19:53:45;;;;;;;16.40;3.65;;;24.30;88.40;;;;;;5013220;28;20038;-72
2022/05/17 19:56:11;;;;;;;14.25;3.83;;;24.30;89.00;;;;;;5014705;28;20108;-73
2022/05/17 19:58:38;;;;;;;15.68;4.55;;;24.30;89.30;;;;;;4995527;28;20102;-73
2022/05/17 20:01:06;;;;;;;18.52;3.88;;;24.30;88.20;;;;;;4995021;28;20140;-73
2022/05/17 20:03:32;;;;;;;13.50;4.05;;;24.30;88.00;;;;;;4994214;28;20367;-73
2022/05/17 20:05:58;;;;;;;13.68;4.43;;;24.30;88.00;;;;;;4995338;28;20029;-73
2022/05/17 20:08:25;;;;;;;12.93;3.85;;;24.30;88.10;;;;;;4995300;28;20035;-73
2022/05/17 20:10:51;;;;;;;11.45;3.90;;;24.30;88.30;;;;;;4995039;28;20026;-73
2022/05/17 20:13:17;;;;;;;10.98;3.35;;;24.20;88.80;;;;;;5014381;28;20034;-73
2022/05/17 20:15:44;;;;;;;21.95;4.15;;;24.10;89.20;;;;;;5014014;28;20024;-73
2022/05/17 20:18:10;;;;;;;13.32;3.00;;;24.00;85.70;;;;;;5014094;28;20026;-73
2022/05/17 20:20:39;;;;;;;12.68;3.67;;;24.70;81.10;;;;;;5005200;28;20117;-73
2022/05/17 20:23:11;;;;;;;7.70;2.65;;;25.00;78.10;;;;;;5015226;28;20026;-73
2022/05/17 20:25:39;;;;;;;10.15;2.35;;;25.20;76.00;;;;;;5014039;28;20026;-73
2022/05/17 20:28:07;;;;;;;16.23;2.00;;;25.30;75.80;;;;;;5014106;28;20072;-73
2022/05/17 20:30:33;;;;;;;8.38;2.05;;;25.40;74.70;;;;;;5013632;28;20084;-73
2022/05/17 20:33:03;;;;;;;12.38;2.65;;;25.30;73.40;;;;;;5013323;28;20026;-73
2022/05/17 20:35:30;;;;;;;6.30;1.55;;;25.30;72.50;;;;;;5014321;28;20077;-73
2022/05/17 20:37:55;;;;;;;4.72;1.70;;;25.30;71.60;;;;;;5014454;28;20037;-74
2022/05/17 20:40:21;;;;;;;7.20;1.75;;;25.20;71.60;;;;;;5013831;28;20034;-73
2022/05/17 20:42:50;;;;;;;7.93;1.63;;;25.20;71.50;;;;;;5013374;28;20025;-73
2022/05/17 20:45:23;;;;;;;5.38;1.85;;;25.20;71.00;;;;;;5014148;28;20075;-73
2022/05/17 20:50:33;;;;;;;7.88;1.88;;;25.10;71.00;;;;;;5013941;28;20095;-73
2022/05/17 20:52:59;;;;;;;5.55;1.48;;;25.00;71.30;;;;;;5013336;28;20460;-73
2022/05/17 20:55:26;;;;;;;7.65;1.40;;;24.90;70.70;;;;;;5013348;28;20056;-73
2022/05/17 20:57:52;;;;;;;8.80;1.60;;;24.90;70.70;;;;;;5004212;28;20037;-73
2022/05/17 21:00:19;;;;;;;5.18;2.03;;;24.90;70.60;;;;;;4993732;28;20039;-73
2022/05/17 21:02:44;;;;;;;6.57;1.80;;;24.90;70.80;;;;;;4993956;28;20027;-73
2022/05/17 21:05:10;;;;;;;12.15;1.70;;;24.80;70.60;;;;;;4994075;28;20501;-73
2022/05/17 21:07:36;;;;;;;3.38;1.35;;;24.80;70.40;;;;;;4994124;28;20417;-73
2022/05/17 21:10:02;;;;;;;5.30;1.60;;;24.80;71.20;;;;;;5013658;28;20500;-73
2022/05/17 21:12:31;;;;;;;6.80;1.73;;;24.70;71.60;;;;;;5012865;28;20049;-73
2022/05/17 21:14:57;;;;;;;6.38;1.45;;;24.60;71.50;;;;;;5012425;28;20033;-74
2022/05/17 21:17:24;;;;;;;7.38;1.48;;;24.60;71.30;;;;;;5013243;28;20385;-73
2022/05/17 21:19:51;;;;;;;5.05;1.50;;;24.50;71.50;;;;;;5013006;28;20116;-74
2022/05/17 21:22:16;;;;;;;4.72;1.38;;;24.50;71.70;;;;;;5013794;28;20025;-73
2022/05/17 21:24:42;;;;;;;8.65;1.67;;;24.50;72.10;;;;;;5012658;28;20076;-73
2022/05/17 21:27:13;;;;;;;7.53;1.52;;;24.40;72.10;;;;;;5007722;28;20025;-73
2022/05/17 21:29:39;;;;;;;7.47;1.52;;;24.40;71.90;;;;;;5012726;28;20045;-74
2022/05/17 21:32:06;;;;;;;9.40;1.73;;;24.40;71.50;;;;;;5013086;28;20400;-73
2022/05/17 21:34:33;;;;;;;9.13;1.73;;;24.40;71.70;;;;;;4996077;28;20026;-73
2022/05/17 21:36:59;;;;;;;4.65;1.50;;;24.30;71.90;;;;;;4993178;28;20478;-73
2022/05/17 21:39:32;;;;;;;5.53;1.60;;;24.30;71.50;;;;;;4998209;28;20030;-73
2022/05/17 21:41:58;;;;;;;11.15;1.50;;;24.20;71.80;;;;;;5008240;28;20498;-73
2022/05/17 21:44:24;;;;;;;7.03;1.75;;;24.20;71.70;;;;;;4993362;28;20030;-73
2022/05/17 21:46:51;;;;;;;8.40;1.60;;;24.10;72.00;;;;;;5006732;28;20022;-73
2022/05/17 21:49:17;;;;;;;7.10;1.63;;;24.00;72.50;;;;;;5013119;28;20033;-73
2022/05/17 21:51:42;;;;;;;6.72;1.63;;;24.00;72.80;;;;;;5012046;28;20026;-73
2022/05/17 21:54:08;;;;;;;8.05;1.58;;;24.00;73.10;;;;;;5012584;28;20053;-73
2022/05/17 21:56:35;;;;;;;8.07;1.70;;;23.90;73.60;;;;;;5012050;28;20379;-73
2022/05/17 21:59:01;;;;;;;8.88;1.23;;;23.80;73.70;;;;;;5012351;28;20040;-73